createdAt,value
2017-09-24T00:00:37.667Z,0
2017-09-24T00:01:37.359Z,0
2017-09-24T00:02:52.291Z,0
2017-09-24T00:03:37.778Z,0
2017-09-24T00:04:37.425Z,0
2017-09-24T00:05:37.450Z,0
2017-09-24T00:06:37.467Z,0
2017-09-24T00:07:37.497Z,0
2017-09-24T00:08:52.106Z,0
2017-09-24T00:09:37.856Z,0
2017-09-24T00:10:37.242Z,0
2017-09-24T00:11:37.583Z,0
2017-09-24T00:12:37.921Z,0
2017-09-24T00:13:37.947Z,0
2017-09-24T00:14:37.644Z,0
2017-09-24T00:15:37.674Z,0
2017-09-24T00:16:38.012Z,0
2017-09-24T00:17:38.031Z,0
2017-09-24T00:18:52.642Z,0
2017-09-24T00:19:38.074Z,0
2017-09-24T00:21:52.711Z,0
2017-09-24T00:24:38.181Z,0
2017-09-24T00:25:38.212Z,0
2017-09-24T00:26:37.586Z,0
2017-09-24T00:27:38.255Z,0
2017-09-24T00:28:37.953Z,0
2017-09-24T00:29:38.290Z,0
2017-09-24T00:30:52.911Z,0
2017-09-24T00:31:38.013Z,0
2017-09-24T00:32:38.353Z,0
2017-09-24T00:33:38.381Z,0
2017-09-24T00:34:52.672Z,0
2017-09-24T00:35:38.426Z,0
2017-09-24T00:36:38.439Z,0
2017-09-24T00:37:38.470Z,0
2017-09-24T00:38:38.480Z,0
2017-09-24T00:39:38.506Z,0
2017-09-24T00:40:38.545Z,0
2017-09-24T00:41:38.558Z,0
2017-09-24T00:42:37.935Z,0
2017-09-24T00:43:38.597Z,0
2017-09-24T00:44:38.615Z,0
2017-09-24T00:45:37.998Z,0
2017-09-24T00:46:38.669Z,0
2017-09-24T00:48:38.699Z,0
2017-09-24T00:49:38.722Z,0
2017-09-24T00:50:53.389Z,0
2017-09-24T00:51:38.446Z,0
2017-09-24T00:53:38.811Z,0
2017-09-24T00:54:38.837Z,0
2017-09-24T00:55:53.127Z,0
2017-09-24T00:56:53.469Z,0
2017-09-24T00:57:38.901Z,0
2017-09-24T00:58:38.601Z,0
2017-09-24T00:59:38.939Z,0
2017-09-24T01:00:38.967Z,0
2017-09-24T01:01:38.983Z,0
2017-09-24T01:02:39.005Z,0
2017-09-24T01:03:38.704Z,0
2017-09-24T01:04:39.049Z,0
2017-09-24T01:05:53.663Z,0
2017-09-24T01:06:38.804Z,0
2017-09-24T01:07:39.120Z,0
2017-09-24T01:08:38.820Z,0
2017-09-24T01:09:53.749Z,0
2017-09-24T01:11:39.210Z,0
2017-09-24T01:12:39.225Z,0
2017-09-24T01:13:38.927Z,0
2017-09-24T01:14:53.859Z,0
2017-09-24T01:15:38.972Z,0
2017-09-24T01:16:39.309Z,0
2017-09-24T01:17:39.331Z,0
2017-09-24T01:18:39.353Z,0
2017-09-24T01:19:39.379Z,0
2017-09-24T01:20:38.447Z,0
2017-09-24T01:21:54.010Z,0
2017-09-24T01:22:39.120Z,0
2017-09-24T01:23:39.150Z,0
2017-09-24T01:24:39.167Z,0
2017-09-24T01:25:54.096Z,0
2017-09-24T01:26:39.209Z,0
2017-09-24T01:27:39.555Z,0
2017-09-24T01:29:38.953Z,0
2017-09-24T01:30:39.620Z,0
2017-09-24T01:31:39.319Z,0
2017-09-24T01:32:39.655Z,0
2017-09-24T01:33:39.684Z,0
2017-09-24T01:34:39.383Z,0
2017-09-24T01:35:39.405Z,0
2017-09-24T01:36:39.426Z,0
2017-09-24T01:37:54.362Z,0
2017-09-24T01:38:39.793Z,0
2017-09-24T01:39:39.808Z,0
2017-09-24T01:40:39.830Z,0
2017-09-24T01:41:39.850Z,0
2017-09-24T01:42:39.557Z,0
2017-09-24T01:43:39.894Z,0
2017-09-24T01:44:54.507Z,0
2017-09-24T01:45:39.941Z,0
2017-09-24T01:46:39.645Z,0
2017-09-24T01:47:39.982Z,0
2017-09-24T01:48:40.006Z,0
2017-09-24T01:49:39.718Z,0
2017-09-24T01:50:54.644Z,0
2017-09-24T01:51:39.752Z,0
2017-09-24T01:52:40.093Z,0
2017-09-24T01:53:54.707Z,0
2017-09-24T01:54:39.500Z,0
2017-09-24T01:55:39.841Z,0
2017-09-24T01:56:40.178Z,0
2017-09-24T01:57:40.202Z,0
2017-09-24T01:58:40.219Z,0
2017-09-24T01:59:54.516Z,0
2017-09-24T02:00:54.859Z,0
2017-09-24T02:01:39.970Z,0
2017-09-24T02:02:54.901Z,0
2017-09-24T02:03:40.382Z,0
2017-09-24T02:04:40.354Z,0
2017-09-24T02:05:40.061Z,0
2017-09-24T02:06:40.402Z,0
2017-09-24T02:07:40.421Z,0
2017-09-24T02:08:40.441Z,0
2017-09-24T02:09:54.737Z,0
2017-09-24T02:11:54.781Z,0
2017-09-24T02:12:40.214Z,0
2017-09-24T02:13:40.546Z,0
2017-09-24T02:15:40.597Z,0
2017-09-24T02:16:40.300Z,0
2017-09-24T02:17:55.231Z,0
2017-09-24T02:18:40.338Z,0
2017-09-24T02:19:40.681Z,0
2017-09-24T02:20:40.710Z,0
2017-09-24T02:21:40.090Z,0
2017-09-24T02:22:40.750Z,0
2017-09-24T02:23:40.776Z,0
2017-09-24T02:24:40.476Z,0
2017-09-24T02:25:55.093Z,0
2017-09-24T02:26:40.834Z,0
2017-09-24T02:27:40.544Z,0
2017-09-24T02:28:40.561Z,0
2017-09-24T02:29:55.495Z,0
2017-09-24T02:30:40.607Z,0
2017-09-24T02:31:54.897Z,0
2017-09-24T02:32:40.647Z,0
2017-09-24T02:33:40.674Z,0
2017-09-24T02:34:40.693Z,0
2017-09-24T02:35:40.718Z,0
2017-09-24T02:36:41.056Z,0
2017-09-24T02:37:41.073Z,0
2017-09-24T02:38:41.101Z,0
2017-09-24T02:39:41.120Z,0
2017-09-24T02:40:55.745Z,0
2017-09-24T02:41:55.762Z,0
2017-09-24T02:42:41.187Z,0
2017-09-24T02:43:55.798Z,0
2017-09-24T02:44:41.285Z,0
2017-09-24T02:45:41.254Z,0
2017-09-24T02:46:40.962Z,0
2017-09-24T02:47:55.890Z,0
2017-09-24T02:48:41.002Z,0
2017-09-24T02:49:41.344Z,0
2017-09-24T02:50:41.371Z,0
2017-09-24T02:51:41.065Z,0
2017-09-24T02:52:41.410Z,0
2017-09-24T02:53:41.112Z,0
2017-09-24T02:54:41.455Z,0
2017-09-24T02:55:41.476Z,0
2017-09-24T02:56:41.490Z,0
2017-09-24T02:57:56.113Z,0
2017-09-24T02:58:41.583Z,0
2017-09-24T02:59:56.150Z,0
2017-09-24T03:00:41.577Z,0
2017-09-24T03:01:41.284Z,0
2017-09-24T03:02:41.636Z,0
2017-09-24T03:03:41.648Z,0
2017-09-24T03:04:56.260Z,0
2017-09-24T03:05:41.373Z,0
2017-09-24T03:06:41.719Z,0
2017-09-24T03:07:41.416Z,0
2017-09-24T03:08:41.754Z,0
2017-09-24T03:09:41.462Z,0
2017-09-24T03:10:41.482Z,0
2017-09-24T03:11:41.502Z,0
2017-09-24T03:12:56.472Z,0
2017-09-24T03:13:41.867Z,0
2017-09-24T03:14:41.888Z,0
2017-09-24T03:16:56.524Z,0
2017-09-24T03:17:41.639Z,0
2017-09-24T03:18:41.658Z,0
2017-09-24T03:19:42.047Z,0
2017-09-24T03:20:42.030Z,0
2017-09-24T03:21:42.044Z,0
2017-09-24T03:22:42.068Z,0
2017-09-24T03:23:42.088Z,0
2017-09-24T03:24:41.471Z,0
2017-09-24T03:25:41.811Z,0
2017-09-24T03:26:41.832Z,0
2017-09-24T03:27:41.857Z,0
2017-09-24T03:28:56.788Z,0
2017-09-24T03:29:41.902Z,0
2017-09-24T03:30:42.248Z,0
2017-09-24T03:31:56.855Z,0
2017-09-24T03:32:42.287Z,0
2017-09-24T03:33:56.579Z,0
2017-09-24T03:34:42.006Z,0
2017-09-24T03:35:42.351Z,0
2017-09-24T03:36:42.053Z,0
2017-09-24T03:37:42.074Z,0
2017-09-24T03:38:42.421Z,0
2017-09-24T03:39:42.122Z,0
2017-09-24T03:40:42.146Z,0
2017-09-24T03:41:42.164Z,0
2017-09-24T03:42:42.505Z,0
2017-09-24T03:43:42.209Z,0
2017-09-24T03:44:56.821Z,0
2017-09-24T03:45:42.572Z,0
2017-09-24T03:46:42.590Z,0
2017-09-24T03:47:42.298Z,0
2017-09-24T03:48:57.227Z,0
2017-09-24T03:49:42.338Z,0
2017-09-24T03:50:42.682Z,0
2017-09-24T03:51:56.973Z,0
2017-09-24T03:52:42.723Z,0
2017-09-24T03:53:42.432Z,0
2017-09-24T03:54:42.452Z,0
2017-09-24T03:55:42.470Z,0
2017-09-24T03:56:42.823Z,0
2017-09-24T03:57:42.828Z,0
2017-09-24T03:58:42.538Z,0
2017-09-24T03:59:42.238Z,0
2017-09-24T04:00:56.856Z,0
2017-09-24T04:02:57.219Z,0
2017-09-24T04:03:42.968Z,0
2017-09-24T04:04:42.670Z,0
2017-09-24T04:05:42.695Z,0
2017-09-24T04:06:42.720Z,0
2017-09-24T04:07:42.735Z,0
2017-09-24T04:08:43.076Z,0
2017-09-24T04:09:43.097Z,0
2017-09-24T04:10:43.123Z,0
2017-09-24T04:11:42.822Z,0
2017-09-24T04:12:43.166Z,0
2017-09-24T04:13:43.191Z,0
2017-09-24T04:14:43.211Z,0
2017-09-24T04:15:57.824Z,0
2017-09-24T04:16:43.253Z,0
2017-09-24T04:17:42.956Z,0
2017-09-24T04:18:43.292Z,0
2017-09-24T04:19:43.006Z,0
2017-09-24T04:20:57.937Z,0
2017-09-24T04:22:43.073Z,0
2017-09-24T04:23:43.410Z,0
2017-09-24T04:24:43.427Z,0
2017-09-24T04:25:43.139Z,0
2017-09-24T04:26:43.156Z,0
2017-09-24T04:27:43.504Z,0
2017-09-24T04:28:43.517Z,0
2017-09-24T04:29:43.546Z,0
2017-09-24T04:30:43.565Z,0
2017-09-24T04:31:43.585Z,0
2017-09-24T04:32:43.602Z,0
2017-09-24T04:33:43.631Z,0
2017-09-24T04:34:43.334Z,0
2017-09-24T04:35:43.357Z,0
2017-09-24T04:36:43.701Z,0
2017-09-24T04:37:57.989Z,0
2017-09-24T04:38:58.332Z,0
2017-09-24T04:39:43.759Z,4
2017-09-24T04:40:43.782Z,4
2017-09-24T04:41:43.805Z,4
2017-09-24T04:42:43.827Z,4
2017-09-24T04:43:43.848Z,4
2017-09-24T04:44:43.876Z,4
2017-09-24T04:45:43.899Z,8
2017-09-24T04:46:43.915Z,8
2017-09-24T04:47:58.529Z,12
2017-09-24T04:48:43.960Z,12
2017-09-24T04:49:58.577Z,16
2017-09-24T04:51:58.617Z,20
2017-09-24T04:52:44.057Z,16
2017-09-24T04:53:44.067Z,16
2017-09-24T04:54:43.773Z,16
2017-09-24T04:55:43.799Z,20
2017-09-24T04:56:43.814Z,20
2017-09-24T04:57:43.839Z,24
2017-09-24T04:58:43.860Z,28
2017-09-24T04:59:43.886Z,28
2017-09-24T05:00:44.224Z,28
2017-09-24T05:01:43.929Z,28
2017-09-24T05:02:43.946Z,28
2017-09-24T05:03:58.881Z,32
2017-09-24T05:04:43.991Z,32
2017-09-24T05:05:44.340Z,36
2017-09-24T05:06:58.948Z,36
2017-09-24T05:07:44.063Z,36
2017-09-24T05:08:43.763Z,44
2017-09-24T05:09:44.108Z,44
2017-09-24T05:10:59.035Z,52
2017-09-24T05:11:44.470Z,52
2017-09-24T05:12:44.520Z,52
2017-09-24T05:13:44.518Z,56
2017-09-24T05:14:59.122Z,60
2017-09-24T05:15:44.244Z,64
2017-09-24T05:16:44.575Z,68
2017-09-24T05:17:44.313Z,72
2017-09-24T05:18:44.304Z,80
2017-09-24T05:19:58.915Z,92
2017-09-24T05:20:58.942Z,100
2017-09-24T05:21:58.963Z,112
2017-09-24T05:22:44.723Z,124
2017-09-24T05:23:44.737Z,132
2017-09-24T05:24:59.028Z,140
2017-09-24T05:26:44.804Z,152
2017-09-24T05:27:44.499Z,152
2017-09-24T05:28:44.523Z,152
2017-09-24T05:29:44.231Z,152
2017-09-24T05:30:44.885Z,144
2017-09-24T05:31:44.909Z,140
2017-09-24T05:32:44.612Z,136
2017-09-24T05:33:44.316Z,144
2017-09-24T05:34:44.659Z,152
2017-09-24T05:35:59.588Z,164
2017-09-24T05:36:44.066Z,168
2017-09-24T05:37:59.634Z,156
2017-09-24T05:38:44.430Z,156
2017-09-24T05:39:44.771Z,160
2017-09-24T05:40:59.381Z,164
2017-09-24T05:41:44.845Z,172
2017-09-24T05:42:44.834Z,168
2017-09-24T05:43:45.179Z,168
2017-09-24T05:44:45.200Z,188
2017-09-24T05:45:44.904Z,220
2017-09-24T05:46:44.929Z,248
2017-09-24T05:47:45.271Z,264
2017-09-24T05:48:44.650Z,284
2017-09-24T05:49:45.311Z,296
2017-09-24T05:50:59.923Z,264
2017-09-24T05:51:45.351Z,284
2017-09-24T05:52:59.648Z,352
2017-09-24T05:53:45.399Z,404
2017-09-24T05:55:00.011Z,464
2017-09-24T05:55:44.808Z,524
2017-09-24T05:56:44.827Z,644
2017-09-24T05:57:45.486Z,644
2017-09-24T05:58:44.874Z,616
2017-09-24T05:59:45.213Z,596
2017-09-24T06:00:44.916Z,516
2017-09-24T06:01:45.569Z,456
2017-09-24T06:02:45.597Z,500
2017-09-24T06:03:45.670Z,504
2017-09-24T06:04:45.640Z,512
2017-09-24T06:06:00.262Z,472
2017-09-24T06:07:00.280Z,456
2017-09-24T06:07:45.393Z,484
2017-09-24T06:08:45.729Z,520
2017-09-24T06:09:45.755Z,576
2017-09-24T06:10:45.784Z,640
2017-09-24T06:11:45.798Z,656
2017-09-24T06:13:45.525Z,676
2017-09-24T06:14:45.867Z,620
2017-09-24T06:15:45.886Z,544
2017-09-24T06:16:45.591Z,480
2017-09-24T06:17:45.935Z,456
2017-09-24T06:18:45.952Z,488
2017-09-24T06:19:45.978Z,548
2017-09-24T06:20:45.998Z,512
2017-09-24T06:21:46.017Z,504
2017-09-24T06:23:00.316Z,520
2017-09-24T06:23:46.078Z,508
2017-09-24T06:24:46.085Z,476
2017-09-24T06:25:45.788Z,432
2017-09-24T06:27:00.729Z,396
2017-09-24T06:28:00.746Z,380
2017-09-24T06:29:00.767Z,368
2017-09-24T06:29:45.881Z,368
2017-09-24T06:31:00.813Z,364
2017-09-24T06:31:45.926Z,388
2017-09-24T06:32:46.267Z,416
2017-09-24T06:33:46.283Z,452
2017-09-24T06:34:45.987Z,484
2017-09-24T06:35:46.332Z,480
2017-09-24T06:36:46.050Z,500
2017-09-24T06:37:46.379Z,452
2017-09-24T06:39:00.673Z,468
2017-09-24T06:39:46.118Z,452
2017-09-24T06:40:46.450Z,460
2017-09-24T06:42:45.852Z,512
2017-09-24T06:43:46.516Z,504
2017-09-24T06:44:46.549Z,572
2017-09-24T06:45:46.564Z,608
2017-09-24T06:46:46.583Z,568
2017-09-24T06:47:46.282Z,484
2017-09-24T06:48:45.988Z,444
2017-09-24T06:49:46.643Z,444
2017-09-24T06:50:46.669Z,420
2017-09-24T06:51:46.689Z,448
2017-09-24T06:52:46.399Z,504
2017-09-24T06:53:46.738Z,524
2017-09-24T06:55:01.037Z,480
2017-09-24T06:55:46.467Z,452
2017-09-24T06:57:01.400Z,516
2017-09-24T06:57:46.826Z,524
2017-09-24T06:58:46.533Z,528
2017-09-24T07:00:01.463Z,484
2017-09-24T07:01:01.167Z,472
2017-09-24T07:01:46.923Z,464
2017-09-24T07:03:01.530Z,492
2017-09-24T07:03:46.965Z,536
2017-09-24T07:04:46.986Z,600
2017-09-24T07:05:46.686Z,652
2017-09-24T07:06:47.031Z,620
2017-09-24T07:07:47.106Z,560
2017-09-24T07:08:47.074Z,520
2017-09-24T07:09:47.102Z,484
2017-09-24T07:11:01.392Z,540
2017-09-24T07:13:46.866Z,480
2017-09-24T07:14:46.892Z,468
2017-09-24T07:15:47.229Z,436
2017-09-24T07:16:46.939Z,408
2017-09-24T07:17:47.282Z,428
2017-09-24T07:18:46.979Z,412
2017-09-24T07:19:47.376Z,376
2017-09-24T07:20:47.342Z,364
2017-09-24T07:21:47.402Z,388
2017-09-24T07:22:47.393Z,436
2017-09-24T07:23:47.410Z,412
2017-09-24T07:24:47.436Z,548
2017-09-24T07:26:02.056Z,668
2017-09-24T07:26:47.476Z,684
2017-09-24T07:27:47.504Z,640
2017-09-24T07:29:02.115Z,604
2017-09-24T07:29:47.555Z,596
2017-09-24T07:31:02.159Z,564
2017-09-24T07:32:02.183Z,508
2017-09-24T07:32:47.297Z,476
2017-09-24T07:33:47.316Z,444
2017-09-24T07:34:47.660Z,420
2017-09-24T07:35:47.683Z,380
2017-09-24T07:36:47.708Z,380
2017-09-24T07:37:47.727Z,404
2017-09-24T07:38:47.427Z,460
2017-09-24T07:39:47.448Z,496
2017-09-24T07:40:47.473Z,564
2017-09-24T07:41:47.504Z,684
2017-09-24T07:44:02.130Z,616
2017-09-24T07:45:02.158Z,604
2017-09-24T07:45:47.608Z,616
2017-09-24T07:47:02.522Z,612
2017-09-24T07:47:47.950Z,644
2017-09-24T07:48:47.975Z,668
2017-09-24T07:49:47.358Z,704
2017-09-24T07:50:48.019Z,764
2017-09-24T07:51:48.036Z,856
2017-09-24T07:52:47.428Z,856
2017-09-24T07:53:48.085Z,920
2017-09-24T07:54:47.472Z,996
2017-09-24T07:55:47.814Z,1104
2017-09-24T07:58:02.765Z,1052
2017-09-24T07:58:47.877Z,1148
2017-09-24T07:59:48.224Z,1300
2017-09-24T08:00:47.921Z,1380
2017-09-24T08:01:48.262Z,1392
2017-09-24T08:02:47.966Z,1356
2017-09-24T08:03:48.309Z,1336
2017-09-24T08:04:48.011Z,1328
2017-09-24T08:05:48.366Z,1320
2017-09-24T08:06:48.380Z,1400
2017-09-24T08:07:48.402Z,1472
2017-09-24T08:08:48.424Z,1472
2017-09-24T08:09:48.440Z,1348
2017-09-24T08:10:48.465Z,1316
2017-09-24T08:11:48.174Z,1356
2017-09-24T08:12:48.509Z,1452
2017-09-24T08:14:03.125Z,1348
2017-09-24T08:15:48.576Z,1052
2017-09-24T08:17:48.309Z,1012
2017-09-24T08:18:48.327Z,1128
2017-09-24T08:19:48.720Z,1340
2017-09-24T08:20:48.373Z,1172
2017-09-24T08:21:48.394Z,1156
2017-09-24T08:22:48.416Z,1332
2017-09-24T08:23:48.123Z,1500
2017-09-24T08:24:48.799Z,1620
2017-09-24T08:25:48.803Z,1852
2017-09-24T08:26:48.827Z,1916
2017-09-24T08:28:48.564Z,2040
2017-09-24T08:30:03.485Z,2328
2017-09-24T08:30:48.915Z,2264
2017-09-24T08:32:03.536Z,2004
2017-09-24T08:34:03.259Z,1788
2017-09-24T08:35:03.279Z,1684
2017-09-24T08:36:03.622Z,1700
2017-09-24T08:36:48.739Z,1700
2017-09-24T08:38:03.666Z,1808
2017-09-24T08:38:48.460Z,1900
2017-09-24T08:39:48.796Z,2084
2017-09-24T08:40:48.507Z,2456
2017-09-24T08:41:48.845Z,2668
2017-09-24T08:42:48.912Z,2876
2017-09-24T08:43:48.895Z,2944
2017-09-24T08:44:49.243Z,2592
2017-09-24T08:46:03.849Z,2720
2017-09-24T08:47:03.872Z,3048
2017-09-24T08:48:03.899Z,3164
2017-09-24T08:49:49.035Z,3368
2017-09-24T08:50:49.367Z,3260
2017-09-24T08:51:49.401Z,2796
2017-09-24T08:52:49.419Z,2860
2017-09-24T08:53:49.126Z,2836
2017-09-24T08:54:49.151Z,2820
2017-09-24T08:55:49.169Z,2676
2017-09-24T08:56:49.187Z,2368
2017-09-24T08:58:04.132Z,2408
2017-09-24T08:58:49.236Z,2524
2017-09-24T08:59:49.260Z,2444
2017-09-24T09:01:04.199Z,2292
2017-09-24T09:01:49.304Z,2384
2017-09-24T09:02:49.325Z,2364
2017-09-24T09:03:49.673Z,2384
2017-09-24T09:04:49.693Z,2424
2017-09-24T09:05:49.396Z,2460
2017-09-24T09:06:49.428Z,2856
2017-09-24T09:07:49.441Z,2908
2017-09-24T09:10:04.076Z,3140
2017-09-24T09:10:49.824Z,3132
2017-09-24T09:11:49.853Z,3068
2017-09-24T09:12:49.877Z,2928
2017-09-24T09:13:49.901Z,2540
2017-09-24T09:14:49.919Z,2496
2017-09-24T09:15:49.949Z,2616
2017-09-24T09:16:49.966Z,3180
2017-09-24T09:17:49.349Z,3528
2017-09-24T09:18:50.011Z,3644
2017-09-24T09:19:50.079Z,3684
2017-09-24T09:21:04.650Z,3680
2017-09-24T09:22:50.104Z,3848
2017-09-24T09:24:04.720Z,4940
2017-09-24T09:24:50.149Z,5128
2017-09-24T09:25:49.860Z,4716
2017-09-24T09:26:50.202Z,4004
2017-09-24T09:27:49.903Z,3656
2017-09-24T09:28:49.604Z,3664
2017-09-24T09:29:50.267Z,3772
2017-09-24T09:30:50.289Z,3796
2017-09-24T09:31:50.317Z,3548
2017-09-24T09:33:04.934Z,3812
2017-09-24T09:33:50.368Z,3784
2017-09-24T09:34:50.383Z,3280
2017-09-24T09:36:04.682Z,3688
2017-09-24T09:37:05.022Z,3644
2017-09-24T09:38:50.160Z,3628
2017-09-24T09:39:50.185Z,3680
2017-09-24T09:40:50.520Z,3440
2017-09-24T09:41:50.232Z,3024
2017-09-24T09:42:50.568Z,2920
2017-09-24T09:43:50.274Z,2996
2017-09-24T09:44:49.980Z,3012
2017-09-24T09:45:50.646Z,3032
2017-09-24T09:46:50.665Z,3292
2017-09-24T09:47:50.374Z,3528
2017-09-24T09:49:05.304Z,3464
2017-09-24T09:49:50.415Z,3564
2017-09-24T09:50:50.760Z,3884
2017-09-24T09:51:50.779Z,3788
2017-09-24T09:53:05.398Z,3372
2017-09-24T09:54:50.537Z,2908
2017-09-24T09:55:50.879Z,2628
2017-09-24T09:56:50.584Z,2772
2017-09-24T09:57:50.599Z,2716
2017-09-24T09:58:50.950Z,2580
2017-09-24T09:59:50.650Z,2640
2017-09-24T10:00:50.354Z,2852
2017-09-24T10:01:50.693Z,3004
2017-09-24T10:02:50.715Z,2976
2017-09-24T10:03:51.063Z,3012
2017-09-24T10:05:50.473Z,3412
2017-09-24T10:06:51.130Z,3708
2017-09-24T10:07:50.836Z,3684
2017-09-24T10:09:50.875Z,3108
2017-09-24T10:10:51.229Z,2968
2017-09-24T10:11:51.247Z,3060
2017-09-24T10:12:50.954Z,3348
2017-09-24T10:13:51.299Z,3632
2017-09-24T10:14:50.995Z,3164
2017-09-24T10:15:51.016Z,2708
2017-09-24T10:16:51.362Z,2460
2017-09-24T10:17:51.388Z,2252
2017-09-24T10:18:51.408Z,2140
2017-09-24T10:19:51.425Z,2136
2017-09-24T10:21:20.636Z,2240
2017-09-24T10:21:51.475Z,2252
2017-09-24T10:22:51.509Z,2184
2017-09-24T10:24:05.800Z,2668
2017-09-24T10:25:06.142Z,2892
2017-09-24T10:25:51.258Z,2948
2017-09-24T10:26:51.280Z,3092
2017-09-24T10:27:51.300Z,3144
2017-09-24T10:28:51.322Z,3052
2017-09-24T10:29:51.668Z,3068
2017-09-24T10:30:51.686Z,3224
2017-09-24T10:31:51.072Z,3296
2017-09-24T10:32:51.744Z,2944
2017-09-24T10:33:51.757Z,2644
2017-09-24T10:35:06.379Z,2780
2017-09-24T10:36:06.084Z,3124
2017-09-24T10:36:51.510Z,2816
2017-09-24T10:38:51.882Z,2568
2017-09-24T10:39:51.907Z,2600
2017-09-24T10:40:51.920Z,2832
2017-09-24T10:41:51.309Z,2836
2017-09-24T10:43:51.990Z,2640
2017-09-24T10:44:52.056Z,2304
2017-09-24T10:45:52.045Z,2392
2017-09-24T10:46:52.060Z,2420
2017-09-24T10:47:52.087Z,2632
2017-09-24T10:48:51.467Z,2420
2017-09-24T10:49:51.809Z,2120
2017-09-24T10:50:51.838Z,2124
2017-09-24T10:51:51.860Z,2056
2017-09-24T10:52:52.204Z,2004
2017-09-24T10:54:06.850Z,2144
2017-09-24T10:54:52.246Z,2064
2017-09-24T10:56:06.859Z,2152
2017-09-24T10:56:51.972Z,2080
2017-09-24T10:57:52.312Z,2196
2017-09-24T10:58:52.374Z,2072
2017-09-24T10:59:52.365Z,1912
2017-09-24T11:00:52.396Z,1820
2017-09-24T11:01:52.409Z,1896
2017-09-24T11:02:52.466Z,2116
2017-09-24T11:03:52.451Z,2648
2017-09-24T11:05:07.078Z,2912
2017-09-24T11:05:52.180Z,3148
2017-09-24T11:06:52.519Z,3128
2017-09-24T11:08:07.137Z,3368
2017-09-24T11:08:52.569Z,3316
2017-09-24T11:09:52.595Z,3372
2017-09-24T11:10:52.294Z,3424
2017-09-24T11:11:52.641Z,3612
2017-09-24T11:12:52.674Z,3980
2017-09-24T11:13:52.737Z,4544
2017-09-24T11:15:06.977Z,4448
2017-09-24T11:15:52.415Z,4220
2017-09-24T11:16:52.754Z,3716
2017-09-24T11:17:52.777Z,3528
2017-09-24T11:18:52.803Z,3156
2017-09-24T11:19:52.508Z,3208
2017-09-24T11:20:52.856Z,3300
2017-09-24T11:21:52.875Z,3404
2017-09-24T11:22:52.898Z,3656
2017-09-24T11:24:07.238Z,3464
2017-09-24T11:24:52.937Z,3588
2017-09-24T11:25:52.959Z,4076
2017-09-24T11:26:52.665Z,3840
2017-09-24T11:28:52.395Z,3792
2017-09-24T11:29:53.055Z,4228
2017-09-24T11:30:53.082Z,4332
2017-09-24T11:31:52.788Z,4092
2017-09-24T11:32:52.824Z,3900
2017-09-24T11:33:53.153Z,3448
2017-09-24T11:34:52.853Z,3520
2017-09-24T11:35:53.198Z,3444
2017-09-24T11:36:52.905Z,2852
2017-09-24T11:38:52.947Z,2560
2017-09-24T11:40:07.886Z,2456
2017-09-24T11:40:52.989Z,2396
2017-09-24T11:41:52.700Z,2072
2017-09-24T11:43:53.097Z,1748
2017-09-24T11:44:53.401Z,1684
2017-09-24T11:45:53.428Z,1836
2017-09-24T11:47:07.724Z,2284
2017-09-24T11:48:08.067Z,2432
2017-09-24T11:48:53.180Z,2724
2017-09-24T11:49:53.521Z,2804
2017-09-24T11:50:53.542Z,2872
2017-09-24T11:51:53.578Z,2912
2017-09-24T11:52:53.592Z,2680
2017-09-24T11:53:53.296Z,2628
2017-09-24T11:56:07.935Z,2348
2017-09-24T11:56:53.686Z,2276
2017-09-24T12:00:08.348Z,2304
2017-09-24T12:01:53.802Z,2344
2017-09-24T12:02:53.826Z,2312
2017-09-24T12:03:53.846Z,2360
2017-09-24T12:04:53.873Z,2352
2017-09-24T12:05:53.585Z,2420
2017-09-24T12:06:53.925Z,2388
2017-09-24T12:07:53.623Z,2628
2017-09-24T12:08:53.646Z,2520
2017-09-24T12:09:53.992Z,2304
2017-09-24T12:11:07.970Z,2588
2017-09-24T12:11:54.034Z,2760
2017-09-24T12:13:08.656Z,2504
2017-09-24T12:13:54.082Z,2540
2017-09-24T12:15:54.130Z,2752
2017-09-24T12:17:08.426Z,2832
2017-09-24T12:17:53.857Z,3000
2017-09-24T12:18:53.885Z,3092
2017-09-24T12:19:54.220Z,3220
2017-09-24T12:20:53.934Z,3240
2017-09-24T12:22:08.857Z,3056
2017-09-24T12:22:54.299Z,3044
2017-09-24T12:23:53.996Z,3032
2017-09-24T12:25:54.042Z,3656
2017-09-24T12:26:54.385Z,3888
2017-09-24T12:27:54.089Z,4160
2017-09-24T12:28:53.792Z,4212
2017-09-24T12:29:54.461Z,3972
2017-09-24T12:30:54.162Z,3732
2017-09-24T12:31:54.499Z,3732
2017-09-24T12:32:54.529Z,3952
2017-09-24T12:33:54.229Z,4028
2017-09-24T12:34:54.571Z,4100
2017-09-24T12:35:54.276Z,4244
2017-09-24T12:36:54.625Z,4268
2017-09-24T12:37:54.645Z,4020
2017-09-24T12:38:54.668Z,3948
2017-09-24T12:39:54.370Z,3732
2017-09-24T12:40:54.714Z,3340
2017-09-24T12:41:54.422Z,2964
2017-09-24T12:43:09.351Z,2628
2017-09-24T12:44:54.804Z,2632
2017-09-24T12:45:54.837Z,2664
2017-09-24T12:46:54.537Z,2712
2017-09-24T12:47:54.559Z,2752
2017-09-24T12:48:54.263Z,2632
2017-09-24T12:49:54.926Z,2600
2017-09-24T12:50:54.954Z,2804
2017-09-24T12:51:54.337Z,2708
2017-09-24T12:52:54.996Z,2724
2017-09-24T12:53:54.698Z,2392
2017-09-24T12:54:54.723Z,2132
2017-09-24T12:55:54.743Z,2048
2017-09-24T12:56:55.093Z,2044
2017-09-24T12:57:55.114Z,2056
2017-09-24T12:59:09.415Z,2192
2017-09-24T12:59:55.162Z,2180
2017-09-24T13:00:55.181Z,2004
2017-09-24T13:02:54.912Z,2224
2017-09-24T13:03:54.623Z,2380
2017-09-24T13:04:54.957Z,2692
2017-09-24T13:05:54.985Z,2584
2017-09-24T13:06:54.688Z,2428
2017-09-24T13:07:55.357Z,2108
2017-09-24T13:08:55.375Z,2020
2017-09-24T13:09:55.077Z,1908
2017-09-24T13:10:55.099Z,1708
2017-09-24T13:11:55.436Z,1580
2017-09-24T13:12:55.482Z,1436
2017-09-24T13:13:55.491Z,1288
2017-09-24T13:15:10.108Z,1148
2017-09-24T13:15:55.536Z,1088
2017-09-24T13:16:55.562Z,1056
2017-09-24T13:19:10.196Z,1064
2017-09-24T13:19:55.630Z,1084
2017-09-24T13:20:55.652Z,1152
2017-09-24T13:21:55.676Z,1232
2017-09-24T13:22:55.703Z,1236
2017-09-24T13:23:55.721Z,1300
2017-09-24T13:24:55.110Z,1308
2017-09-24T13:25:55.450Z,1312
2017-09-24T13:26:55.791Z,1352
2017-09-24T13:27:55.816Z,1380
2017-09-24T13:29:55.862Z,1528
2017-09-24T13:31:09.840Z,1680
2017-09-24T13:31:55.589Z,1788
2017-09-24T13:32:55.940Z,1788
2017-09-24T13:33:55.631Z,1700
2017-09-24T13:34:55.660Z,1460
2017-09-24T13:35:56.000Z,1320
2017-09-24T13:36:56.022Z,1312
2017-09-24T13:37:55.412Z,1416
2017-09-24T13:38:55.488Z,1688
2017-09-24T13:39:56.100Z,2208
2017-09-24T13:40:56.119Z,2556
2017-09-24T13:41:55.506Z,2704
2017-09-24T13:42:55.854Z,2784
2017-09-24T13:43:55.878Z,2856
2017-09-24T13:44:56.212Z,2820
2017-09-24T13:46:10.833Z,2768
2017-09-24T13:47:10.854Z,2712
2017-09-24T13:48:10.556Z,2604
2017-09-24T13:49:56.332Z,2572
2017-09-24T13:50:56.035Z,2612
2017-09-24T13:51:56.432Z,2684
2017-09-24T13:53:10.992Z,2900
2017-09-24T13:53:56.428Z,3076
2017-09-24T13:54:56.442Z,3316
2017-09-24T13:55:56.150Z,3600
2017-09-24T13:56:56.493Z,3952
2017-09-24T13:57:56.518Z,4252
2017-09-24T13:58:56.217Z,4408
2017-09-24T13:59:56.244Z,4344
2017-09-24T14:00:56.269Z,4164
2017-09-24T14:01:56.289Z,3840
2017-09-24T14:03:56.657Z,3436
2017-09-24T14:04:56.366Z,3384
2017-09-24T14:05:56.384Z,3452
2017-09-24T14:07:11.000Z,3628
2017-09-24T14:07:56.432Z,3852
2017-09-24T14:09:11.046Z,4420
2017-09-24T14:09:56.534Z,4444
2017-09-24T14:10:56.503Z,4436
2017-09-24T14:11:56.210Z,3756
2017-09-24T14:12:56.555Z,3908
2017-09-24T14:13:56.894Z,4408
2017-09-24T14:14:56.921Z,5156
2017-09-24T14:15:56.940Z,5116
2017-09-24T14:16:56.651Z,5112
2017-09-24T14:18:11.263Z,5068
2017-09-24T14:19:11.603Z,5080
2017-09-24T14:19:56.720Z,5080
2017-09-24T14:21:11.652Z,5064
2017-09-24T14:21:56.768Z,5052
2017-09-24T14:22:56.788Z,5048
2017-09-24T14:23:57.133Z,4968
2017-09-24T14:24:57.154Z,4976
2017-09-24T14:25:56.855Z,4980
2017-09-24T14:26:57.216Z,4988
2017-09-24T14:27:57.223Z,5032
2017-09-24T14:28:56.615Z,4912
2017-09-24T14:29:57.272Z,4748
2017-09-24T14:30:57.292Z,4720
2017-09-24T14:31:57.004Z,4640
2017-09-24T14:32:57.389Z,4616
2017-09-24T14:34:11.370Z,4732
2017-09-24T14:34:57.392Z,4612
2017-09-24T14:36:12.010Z,4684
2017-09-24T14:37:11.711Z,4808
2017-09-24T14:38:11.417Z,4900
2017-09-24T14:39:11.442Z,4976
2017-09-24T14:39:57.511Z,4964
2017-09-24T14:40:56.896Z,4972
2017-09-24T14:41:57.563Z,4940